sensor_id;sensor_type;location;lat;lon;timestamp;P1;durP1;ratioP1;P2;durP2;ratioP2
36923;SDS011;22841;50.252;18.688;2022-07-04T00:01:15;14.38;;;11.60;;
36923;SDS011;22841;50.252;18.688;2022-07-04T00:03:41;12.57;;;10.20;;
36923;SDS011;22841;50.252;18.688;2022-07-04T00:06:11;15.75;;;11.13;;
36923;SDS011;22841;50.252;18.688;2022-07-04T00:08:37;12.73;;;10.48;;
36923;SDS011;22841;50.252;18.688;2022-07-04T00:11:03;13.57;;;10.35;;
36923;SDS011;22841;50.252;18.688;2022-07-04T00:13:29;13.45;;;11.13;;
36923;SDS011;22841;50.252;18.688;2022-07-04T00:15:55;14.30;;;10.60;;
36923;SDS011;22841;50.252;18.688;2022-07-04T00:18:21;15.23;;;11.13;;
36923;SDS011;22841;50.252;18.688;2022-07-04T00:20:47;11.82;;;10.32;;
36923;SDS011;22841;50.252;18.688;2022-07-04T00:23:14;12.32;;;10.77;;
36923;SDS011;22841;50.252;18.688;2022-07-04T00:25:40;15.60;;;10.95;;
36923;SDS011;22841;50.252;18.688;2022-07-04T00:28:06;15.82;;;10.38;;
36923;SDS011;22841;50.252;18.688;2022-07-04T00:30:32;13.55;;;10.80;;
36923;SDS011;22841;50.252;18.688;2022-07-04T00:32:58;21.42;;;11.43;;
36923;SDS011;22841;50.252;18.688;2022-07-04T00:35:24;15.00;;;10.63;;
36923;SDS011;22841;50.252;18.688;2022-07-04T00:37:50;13.20;;;10.88;;
36923;SDS011;22841;50.252;18.688;2022-07-04T00:40:16;12.07;;;9.52;;
36923;SDS011;22841;50.252;18.688;2022-07-04T00:42:42;15.90;;;10.45;;
36923;SDS011;22841;50.252;18.688;2022-07-04T00:45:08;12.70;;;10.07;;
36923;SDS011;22841;50.252;18.688;2022-07-04T00:47:35;14.82;;;11.18;;
36923;SDS011;22841;50.252;18.688;2022-07-04T00:50:01;12.40;;;9.93;;
36923;SDS011;22841;50.252;18.688;2022-07-04T00:52:27;14.35;;;11.00;;
36923;SDS011;22841;50.252;18.688;2022-07-04T00:54:54;12.77;;;10.82;;
36923;SDS011;22841;50.252;18.688;2022-07-04T00:57:20;18.77;;;10.90;;
36923;SDS011;22841;50.252;18.688;2022-07-04T00:59:46;15.02;;;10.82;;
36923;SDS011;22841;50.252;18.688;2022-07-04T01:02:12;13.93;;;10.00;;
36923;SDS011;22841;50.252;18.688;2022-07-04T01:04:39;13.10;;;9.30;;
36923;SDS011;22841;50.252;18.688;2022-07-04T01:07:08;15.48;;;9.70;;
36923;SDS011;22841;50.252;18.688;2022-07-04T01:09:37;15.52;;;11.07;;
36923;SDS011;22841;50.252;18.688;2022-07-04T01:12:03;16.10;;;10.70;;
36923;SDS011;22841;50.252;18.688;2022-07-04T01:14:30;11.65;;;8.93;;
36923;SDS011;22841;50.252;18.688;2022-07-04T01:16:56;11.73;;;9.27;;
36923;SDS011;22841;50.252;18.688;2022-07-04T01:19:22;13.10;;;9.43;;
36923;SDS011;22841;50.252;18.688;2022-07-04T01:21:48;15.18;;;9.60;;
36923;SDS011;22841;50.252;18.688;2022-07-04T01:24:14;11.90;;;9.40;;
36923;SDS011;22841;50.252;18.688;2022-07-04T01:26:41;10.45;;;8.75;;
36923;SDS011;22841;50.252;18.688;2022-07-04T01:29:07;13.18;;;9.43;;
36923;SDS011;22841;50.252;18.688;2022-07-04T01:31:33;14.20;;;9.27;;
36923;SDS011;22841;50.252;18.688;2022-07-04T01:33:59;14.40;;;9.40;;
36923;SDS011;22841;50.252;18.688;2022-07-04T01:36:25;11.75;;;9.23;;
36923;SDS011;22841;50.252;18.688;2022-07-04T01:38:51;14.35;;;9.68;;
36923;SDS011;22841;50.252;18.688;2022-07-04T01:41:17;11.30;;;8.98;;
36923;SDS011;22841;50.252;18.688;2022-07-04T01:43:44;12.38;;;9.15;;
36923;SDS011;22841;50.252;18.688;2022-07-04T01:46:11;13.88;;;9.88;;
36923;SDS011;22841;50.252;18.688;2022-07-04T01:48:38;15.75;;;8.68;;
36923;SDS011;22841;50.252;18.688;2022-07-04T01:51:05;13.52;;;9.35;;
36923;SDS011;22841;50.252;18.688;2022-07-04T01:53:31;10.95;;;8.95;;
36923;SDS011;22841;50.252;18.688;2022-07-04T01:56:01;16.65;;;10.02;;
36923;SDS011;22841;50.252;18.688;2022-07-04T01:58:27;12.02;;;9.10;;
36923;SDS011;22841;50.252;18.688;2022-07-04T02:00:53;16.25;;;9.40;;
36923;SDS011;22841;50.252;18.688;2022-07-04T02:03:38;13.38;;;9.15;;
36923;SDS011;22841;50.252;18.688;2022-07-04T02:06:04;10.73;;;8.48;;
36923;SDS011;22841;50.252;18.688;2022-07-04T02:08:30;13.88;;;9.15;;
36923;SDS011;22841;50.252;18.688;2022-07-04T02:11:16;13.50;;;9.48;;
36923;SDS011;22841;50.252;18.688;2022-07-04T02:13:42;14.98;;;9.45;;
36923;SDS011;22841;50.252;18.688;2022-07-04T02:16:08;12.35;;;9.65;;
36923;SDS011;22841;50.252;18.688;2022-07-04T02:18:34;12.68;;;9.07;;
36923;SDS011;22841;50.252;18.688;2022-07-04T02:21:00;10.77;;;9.57;;
36923;SDS011;22841;50.252;18.688;2022-07-04T02:23:27;10.18;;;9.02;;
36923;SDS011;22841;50.252;18.688;2022-07-04T02:25:53;11.68;;;8.90;;
36923;SDS011;22841;50.252;18.688;2022-07-04T02:28:19;14.05;;;9.45;;
36923;SDS011;22841;50.252;18.688;2022-07-04T02:30:45;14.07;;;8.93;;
36923;SDS011;22841;50.252;18.688;2022-07-04T02:33:11;12.43;;;8.85;;
36923;SDS011;22841;50.252;18.688;2022-07-04T02:35:38;16.67;;;9.40;;
36923;SDS011;22841;50.252;18.688;2022-07-04T02:38:04;14.63;;;10.40;;
36923;SDS011;22841;50.252;18.688;2022-07-04T02:40:30;16.30;;;9.50;;
36923;SDS011;22841;50.252;18.688;2022-07-04T02:42:56;13.23;;;10.00;;
36923;SDS011;22841;50.252;18.688;2022-07-04T02:45:22;16.20;;;10.38;;
36923;SDS011;22841;50.252;18.688;2022-07-04T02:47:48;16.88;;;9.25;;
36923;SDS011;22841;50.252;18.688;2022-07-04T02:50:14;11.77;;;9.30;;
36923;SDS011;22841;50.252;18.688;2022-07-04T02:52:40;16.33;;;10.48;;
36923;SDS011;22841;50.252;18.688;2022-07-04T02:55:06;14.48;;;11.07;;
36923;SDS011;22841;50.252;18.688;2022-07-04T02:57:33;22.27;;;10.07;;
36923;SDS011;22841;50.252;18.688;2022-07-04T03:00:03;17.80;;;9.93;;
36923;SDS011;22841;50.252;18.688;2022-07-04T03:02:29;15.60;;;10.50;;
36923;SDS011;22841;50.252;18.688;2022-07-04T03:04:55;20.15;;;11.05;;
36923;SDS011;22841;50.252;18.688;2022-07-04T03:07:21;16.13;;;11.35;;
36923;SDS011;22841;50.252;18.688;2022-07-04T03:09:47;16.25;;;10.48;;
36923;SDS011;22841;50.252;18.688;2022-07-04T03:12:13;17.02;;;10.45;;
36923;SDS011;22841;50.252;18.688;2022-07-04T03:14:39;17.55;;;10.35;;
36923;SDS011;22841;50.252;18.688;2022-07-04T03:17:05;13.57;;;10.38;;
36923;SDS011;22841;50.252;18.688;2022-07-04T03:19:31;14.20;;;10.30;;
36923;SDS011;22841;50.252;18.688;2022-07-04T03:21:58;12.45;;;10.13;;
36923;SDS011;22841;50.252;18.688;2022-07-04T03:24:24;17.83;;;10.18;;
36923;SDS011;22841;50.252;18.688;2022-07-04T03:26:50;15.82;;;10.65;;
36923;SDS011;22841;50.252;18.688;2022-07-04T03:29:16;19.02;;;10.02;;
36923;SDS011;22841;50.252;18.688;2022-07-04T03:31:42;21.58;;;11.77;;
36923;SDS011;22841;50.252;18.688;2022-07-04T03:34:08;16.30;;;11.23;;
36923;SDS011;22841;50.252;18.688;2022-07-04T03:36:34;17.40;;;10.98;;
36923;SDS011;22841;50.252;18.688;2022-07-04T03:39:00;18.98;;;11.15;;
36923;SDS011;22841;50.252;18.688;2022-07-04T03:41:26;17.25;;;9.75;;
36923;SDS011;22841;50.252;18.688;2022-07-04T03:43:52;12.65;;;10.20;;
36923;SDS011;22841;50.252;18.688;2022-07-04T03:46:18;15.45;;;10.40;;
36923;SDS011;22841;50.252;18.688;2022-07-04T03:48:46;16.25;;;11.75;;
36923;SDS011;22841;50.252;18.688;2022-07-04T03:51:12;14.38;;;10.48;;
36923;SDS011;22841;50.252;18.688;2022-07-04T03:53:39;15.45;;;10.40;;
36923;SDS011;22841;50.252;18.688;2022-07-04T03:56:05;19.10;;;11.10;;
36923;SDS011;22841;50.252;18.688;2022-07-04T03:58:31;15.02;;;11.18;;
36923;SDS011;22841;50.252;18.688;2022-07-04T04:00:57;20.67;;;12.05;;
36923;SDS011;22841;50.252;18.688;2022-07-04T04:03:23;22.13;;;13.23;;
36923;SDS011;22841;50.252;18.688;2022-07-04T04:06:08;15.98;;;12.65;;
36923;SDS011;22841;50.252;18.688;2022-07-04T04:08:34;16.48;;;13.02;;
36923;SDS011;22841;50.252;18.688;2022-07-04T04:11:00;19.15;;;13.75;;
36923;SDS011;22841;50.252;18.688;2022-07-04T04:13:26;17.40;;;12.32;;
36923;SDS011;22841;50.252;18.688;2022-07-04T04:15:52;23.42;;;12.68;;
36923;SDS011;22841;50.252;18.688;2022-07-04T04:18:18;17.52;;;12.57;;
36923;SDS011;22841;50.252;18.688;2022-07-04T04:20:44;19.85;;;12.65;;
36923;SDS011;22841;50.252;18.688;2022-07-04T04:23:10;19.02;;;13.77;;
36923;SDS011;22841;50.252;18.688;2022-07-04T04:25:36;23.23;;;14.40;;
36923;SDS011;22841;50.252;18.688;2022-07-04T04:28:02;32.70;;;13.23;;
36923;SDS011;22841;50.252;18.688;2022-07-04T04:30:29;22.75;;;13.02;;
36923;SDS011;22841;50.252;18.688;2022-07-04T04:32:55;20.65;;;14.23;;
36923;SDS011;22841;50.252;18.688;2022-07-04T04:35:21;25.33;;;16.35;;
36923;SDS011;22841;50.252;18.688;2022-07-04T04:37:47;28.83;;;15.77;;
36923;SDS011;22841;50.252;18.688;2022-07-04T04:40:13;19.05;;;14.25;;
36923;SDS011;22841;50.252;18.688;2022-07-04T04:42:40;24.95;;;13.85;;
36923;SDS011;22841;50.252;18.688;2022-07-04T04:45:06;27.27;;;15.13;;
36923;SDS011;22841;50.252;18.688;2022-07-04T04:47:32;25.45;;;14.98;;
36923;SDS011;22841;50.252;18.688;2022-07-04T04:49:58;29.38;;;16.15;;
36923;SDS011;22841;50.252;18.688;2022-07-04T04:52:26;22.35;;;14.63;;
36923;SDS011;22841;50.252;18.688;2022-07-04T04:54:52;25.67;;;17.65;;
36923;SDS011;22841;50.252;18.688;2022-07-04T04:57:18;25.70;;;17.73;;
36923;SDS011;22841;50.252;18.688;2022-07-04T04:59:44;46.25;;;21.45;;
36923;SDS011;22841;50.252;18.688;2022-07-04T05:02:10;34.90;;;20.83;;
36923;SDS011;22841;50.252;18.688;2022-07-04T05:04:36;32.83;;;22.73;;
36923;SDS011;22841;50.252;18.688;2022-07-04T05:07:02;39.75;;;23.10;;
36923;SDS011;22841;50.252;18.688;2022-07-04T05:09:28;35.35;;;23.48;;
36923;SDS011;22841;50.252;18.688;2022-07-04T05:11:54;32.72;;;24.08;;
36923;SDS011;22841;50.252;18.688;2022-07-04T05:14:20;27.85;;;19.77;;
36923;SDS011;22841;50.252;18.688;2022-07-04T05:16:46;35.78;;;21.20;;
36923;SDS011;22841;50.252;18.688;2022-07-04T05:19:13;37.35;;;20.90;;
36923;SDS011;22841;50.252;18.688;2022-07-04T05:21:39;32.28;;;20.33;;
36923;SDS011;22841;50.252;18.688;2022-07-04T05:24:05;33.72;;;20.70;;
36923;SDS011;22841;50.252;18.688;2022-07-04T05:26:31;29.70;;;20.50;;
36923;SDS011;22841;50.252;18.688;2022-07-04T05:28:57;29.13;;;19.90;;
36923;SDS011;22841;50.252;18.688;2022-07-04T05:31:23;30.70;;;19.63;;
36923;SDS011;22841;50.252;18.688;2022-07-04T05:33:51;28.95;;;20.58;;
36923;SDS011;22841;50.252;18.688;2022-07-04T05:36:20;32.70;;;20.20;;
36923;SDS011;22841;50.252;18.688;2022-07-04T05:38:46;23.90;;;19.23;;
36923;SDS011;22841;50.252;18.688;2022-07-04T05:41:12;24.15;;;18.52;;
36923;SDS011;22841;50.252;18.688;2022-07-04T05:43:38;27.05;;;18.35;;
36923;SDS011;22841;50.252;18.688;2022-07-04T05:46:06;28.60;;;18.77;;
36923;SDS011;22841;50.252;18.688;2022-07-04T05:48:32;28.58;;;18.38;;
36923;SDS011;22841;50.252;18.688;2022-07-04T05:50:58;22.40;;;17.70;;
36923;SDS011;22841;50.252;18.688;2022-07-04T05:53:24;27.33;;;18.10;;
36923;SDS011;22841;50.252;18.688;2022-07-04T05:55:50;35.10;;;17.55;;
36923;SDS011;22841;50.252;18.688;2022-07-04T05:58:16;27.65;;;16.65;;
36923;SDS011;22841;50.252;18.688;2022-07-04T06:00:42;28.65;;;17.33;;
36923;SDS011;22841;50.252;18.688;2022-07-04T06:03:08;23.80;;;17.10;;
36923;SDS011;22841;50.252;18.688;2022-07-04T06:05:34;25.33;;;18.02;;
36923;SDS011;22841;50.252;18.688;2022-07-04T06:08:04;30.60;;;18.77;;
36923;SDS011;22841;50.252;18.688;2022-07-04T06:10:30;38.20;;;19.80;;
36923;SDS011;22841;50.252;18.688;2022-07-04T06:12:58;28.20;;;17.05;;
36923;SDS011;22841;50.252;18.688;2022-07-04T06:15:25;34.33;;;20.45;;
36923;SDS011;22841;50.252;18.688;2022-07-04T06:17:51;32.60;;;19.65;;
36923;SDS011;22841;50.252;18.688;2022-07-04T06:20:17;28.67;;;19.27;;
36923;SDS011;22841;50.252;18.688;2022-07-04T06:22:45;59.03;;;21.35;;
36923;SDS011;22841;50.252;18.688;2022-07-04T06:25:13;20.95;;;16.77;;
36923;SDS011;22841;50.252;18.688;2022-07-04T06:27:41;33.45;;;19.73;;
36923;SDS011;22841;50.252;18.688;2022-07-04T06:30:08;25.63;;;18.63;;
36923;SDS011;22841;50.252;18.688;2022-07-04T06:32:42;31.88;;;18.00;;
36923;SDS011;22841;50.252;18.688;2022-07-04T06:35:13;26.20;;;19.05;;
36923;SDS011;22841;50.252;18.688;2022-07-04T06:37:58;27.63;;;17.98;;
36923;SDS011;22841;50.252;18.688;2022-07-04T06:40:24;28.50;;;17.50;;
36923;SDS011;22841;50.252;18.688;2022-07-04T06:42:50;27.65;;;17.83;;
36923;SDS011;22841;50.252;18.688;2022-07-04T06:45:16;25.23;;;16.42;;
36923;SDS011;22841;50.252;18.688;2022-07-04T06:47:43;20.40;;;16.20;;
36923;SDS011;22841;50.252;18.688;2022-07-04T06:50:10;26.00;;;14.75;;
36923;SDS011;22841;50.252;18.688;2022-07-04T06:52:36;19.33;;;14.00;;
36923;SDS011;22841;50.252;18.688;2022-07-04T06:55:02;23.85;;;15.00;;
36923;SDS011;22841;50.252;18.688;2022-07-04T06:57:29;30.15;;;13.93;;
36923;SDS011;22841;50.252;18.688;2022-07-04T06:59:55;29.98;;;12.93;;
36923;SDS011;22841;50.252;18.688;2022-07-04T07:02:21;32.08;;;13.73;;
36923;SDS011;22841;50.252;18.688;2022-07-04T07:04:47;18.52;;;11.57;;
36923;SDS011;22841;50.252;18.688;2022-07-04T07:07:13;17.25;;;12.32;;
36923;SDS011;22841;50.252;18.688;2022-07-04T07:09:39;17.77;;;12.27;;
36923;SDS011;22841;50.252;18.688;2022-07-04T07:12:05;19.55;;;12.63;;
36923;SDS011;22841;50.252;18.688;2022-07-04T07:14:32;19.15;;;11.95;;
36923;SDS011;22841;50.252;18.688;2022-07-04T07:16:58;16.30;;;12.10;;
36923;SDS011;22841;50.252;18.688;2022-07-04T07:19:24;20.52;;;11.95;;
36923;SDS011;22841;50.252;18.688;2022-07-04T07:21:50;26.50;;;12.40;;
36923;SDS011;22841;50.252;18.688;2022-07-04T07:24:17;22.27;;;12.20;;
36923;SDS011;22841;50.252;18.688;2022-07-04T07:26:44;14.07;;;11.45;;
36923;SDS011;22841;50.252;18.688;2022-07-04T07:29:10;17.02;;;12.13;;
36923;SDS011;22841;50.252;18.688;2022-07-04T07:31:36;20.40;;;11.38;;
36923;SDS011;22841;50.252;18.688;2022-07-04T07:34:02;22.02;;;11.75;;
36923;SDS011;22841;50.252;18.688;2022-07-04T07:36:28;15.00;;;10.27;;
36923;SDS011;22841;50.252;18.688;2022-07-04T07:38:54;16.15;;;10.32;;
36923;SDS011;22841;50.252;18.688;2022-07-04T07:41:21;20.95;;;10.60;;
36923;SDS011;22841;50.252;18.688;2022-07-04T07:43:47;16.00;;;10.82;;
36923;SDS011;22841;50.252;18.688;2022-07-04T07:46:13;13.63;;;10.27;;
36923;SDS011;22841;50.252;18.688;2022-07-04T07:48:40;17.00;;;10.50;;
36923;SDS011;22841;50.252;18.688;2022-07-04T07:51:06;13.38;;;10.38;;
36923;SDS011;22841;50.252;18.688;2022-07-04T07:53:33;13.13;;;10.68;;
36923;SDS011;22841;50.252;18.688;2022-07-04T07:55:59;13.30;;;10.38;;
36923;SDS011;22841;50.252;18.688;2022-07-04T07:58:25;14.48;;;10.23;;
36923;SDS011;22841;50.252;18.688;2022-07-04T08:00:51;16.33;;;10.20;;
36923;SDS011;22841;50.252;18.688;2022-07-04T08:03:17;16.55;;;10.95;;
36923;SDS011;22841;50.252;18.688;2022-07-04T08:06:02;19.02;;;10.40;;
36923;SDS011;22841;50.252;18.688;2022-07-04T08:08:28;18.23;;;10.40;;
36923;SDS011;22841;50.252;18.688;2022-07-04T08:10:54;15.82;;;9.60;;
36923;SDS011;22841;50.252;18.688;2022-07-04T08:13:20;23.08;;;10.45;;
36923;SDS011;22841;50.252;18.688;2022-07-04T08:15:46;20.98;;;10.15;;
36923;SDS011;22841;50.252;18.688;2022-07-04T08:18:13;17.23;;;9.18;;
36923;SDS011;22841;50.252;18.688;2022-07-04T08:20:39;13.63;;;10.30;;
36923;SDS011;22841;50.252;18.688;2022-07-04T08:23:05;17.90;;;9.25;;
36923;SDS011;22841;50.252;18.688;2022-07-04T08:25:31;14.95;;;8.85;;
36923;SDS011;22841;50.252;18.688;2022-07-04T08:27:57;23.25;;;9.50;;
36923;SDS011;22841;50.252;18.688;2022-07-04T08:30:23;17.92;;;8.70;;
36923;SDS011;22841;50.252;18.688;2022-07-04T08:32:49;12.82;;;8.80;;
36923;SDS011;22841;50.252;18.688;2022-07-04T08:35:15;23.38;;;8.48;;
36923;SDS011;22841;50.252;18.688;2022-07-04T08:37:41;14.65;;;8.85;;
36923;SDS011;22841;50.252;18.688;2022-07-04T08:40:07;15.88;;;8.00;;
36923;SDS011;22841;50.252;18.688;2022-07-04T08:42:35;12.98;;;7.25;;
36923;SDS011;22841;50.252;18.688;2022-07-04T08:45:03;10.35;;;7.63;;
36923;SDS011;22841;50.252;18.688;2022-07-04T08:47:31;14.88;;;5.53;;
36923;SDS011;22841;50.252;18.688;2022-07-04T08:52:30;9.05;;;6.60;;
36923;SDS011;22841;50.252;18.688;2022-07-04T08:55:02;10.65;;;5.43;;
36923;SDS011;22841;50.252;18.688;2022-07-04T08:57:48;9.95;;;5.72;;
36923;SDS011;22841;50.252;18.688;2022-07-04T09:00:34;11.70;;;6.82;;
36923;SDS011;22841;50.252;18.688;2022-07-04T09:03:01;12.23;;;6.45;;
36923;SDS011;22841;50.252;18.688;2022-07-04T09:05:28;9.00;;;7.10;;
36923;SDS011;22841;50.252;18.688;2022-07-04T09:07:55;11.30;;;7.15;;
36923;SDS011;22841;50.252;18.688;2022-07-04T09:10:22;8.85;;;6.53;;
36923;SDS011;22841;50.252;18.688;2022-07-04T09:12:48;8.18;;;6.35;;
36923;SDS011;22841;50.252;18.688;2022-07-04T09:15:15;9.27;;;6.68;;
36923;SDS011;22841;50.252;18.688;2022-07-04T09:17:41;8.07;;;6.32;;
36923;SDS011;22841;50.252;18.688;2022-07-04T09:20:14;8.48;;;6.40;;
36923;SDS011;22841;50.252;18.688;2022-07-04T09:22:47;10.30;;;5.60;;
36923;SDS011;22841;50.252;18.688;2022-07-04T09:25:14;7.00;;;5.43;;
36923;SDS011;22841;50.252;18.688;2022-07-04T09:27:42;15.68;;;6.32;;
36923;SDS011;22841;50.252;18.688;2022-07-04T09:30:10;7.85;;;5.65;;
36923;SDS011;22841;50.252;18.688;2022-07-04T09:32:41;8.55;;;6.07;;
36923;SDS011;22841;50.252;18.688;2022-07-04T09:35:13;8.73;;;6.30;;
36923;SDS011;22841;50.252;18.688;2022-07-04T09:37:46;9.35;;;6.07;;
36923;SDS011;22841;50.252;18.688;2022-07-04T09:40:27;8.10;;;6.03;;
36923;SDS011;22841;50.252;18.688;2022-07-04T09:42:58;7.43;;;5.93;;
36923;SDS011;22841;50.252;18.688;2022-07-04T09:45:26;13.27;;;6.22;;
36923;SDS011;22841;50.252;18.688;2022-07-04T09:47:58;10.85;;;6.13;;
36923;SDS011;22841;50.252;18.688;2022-07-04T09:50:26;15.30;;;6.03;;
36923;SDS011;22841;50.252;18.688;2022-07-04T09:57:52;7.05;;;4.72;;
36923;SDS011;22841;50.252;18.688;2022-07-04T10:00:26;14.80;;;4.95;;
36923;SDS011;22841;50.252;18.688;2022-07-04T10:02:53;14.80;;;5.25;;
36923;SDS011;22841;50.252;18.688;2022-07-04T10:05:24;13.55;;;4.90;;
36923;SDS011;22841;50.252;18.688;2022-07-04T10:07:53;6.85;;;5.15;;
36923;SDS011;22841;50.252;18.688;2022-07-04T10:10:24;7.13;;;4.50;;
36923;SDS011;22841;50.252;18.688;2022-07-04T10:13:04;7.40;;;5.15;;
36923;SDS011;22841;50.252;18.688;2022-07-04T10:15:36;13.38;;;5.13;;
36923;SDS011;22841;50.252;18.688;2022-07-04T10:18:04;5.10;;;4.57;;
36923;SDS011;22841;50.252;18.688;2022-07-04T10:20:32;17.90;;;5.15;;
36923;SDS011;22841;50.252;18.688;2022-07-04T10:22:59;20.63;;;4.78;;
36923;SDS011;22841;50.252;18.688;2022-07-04T10:25:25;7.93;;;4.82;;
36923;SDS011;22841;50.252;18.688;2022-07-04T10:27:51;9.98;;;4.82;;
36923;SDS011;22841;50.252;18.688;2022-07-04T10:30:21;6.18;;;5.13;;
36923;SDS011;22841;50.252;18.688;2022-07-04T10:32:52;6.00;;;5.40;;
36923;SDS011;22841;50.252;18.688;2022-07-04T10:38:20;7.05;;;5.47;;
36923;SDS011;22841;50.252;18.688;2022-07-04T10:45:51;5.75;;;5.10;;
36923;SDS011;22841;50.252;18.688;2022-07-04T10:48:23;5.00;;;4.50;;
36923;SDS011;22841;50.252;18.688;2022-07-04T10:50:58;64.07;;;6.85;;
36923;SDS011;22841;50.252;18.688;2022-07-04T10:53:29;31.48;;;4.65;;
36923;SDS011;22841;50.252;18.688;2022-07-04T10:58:51;7.65;;;3.78;;
36923;SDS011;22841;50.252;18.688;2022-07-04T11:01:18;5.50;;;3.65;;
36923;SDS011;22841;50.252;18.688;2022-07-04T11:03:48;4.15;;;3.75;;
36923;SDS011;22841;50.252;18.688;2022-07-04T11:17:13;5.93;;;3.67;;
36923;SDS011;22841;50.252;18.688;2022-07-04T11:19:44;3.50;;;3.20;;
36923;SDS011;22841;50.252;18.688;2022-07-04T11:22:11;3.72;;;3.38;;
36923;SDS011;22841;50.252;18.688;2022-07-04T11:24:37;6.88;;;3.75;;
36923;SDS011;22841;50.252;18.688;2022-07-04T11:27:06;4.53;;;3.47;;
36923;SDS011;22841;50.252;18.688;2022-07-04T11:29:36;6.35;;;3.63;;
36923;SDS011;22841;50.252;18.688;2022-07-04T11:32:03;6.28;;;3.92;;
36923;SDS011;22841;50.252;18.688;2022-07-04T11:34:32;4.65;;;4.13;;
36923;SDS011;22841;50.252;18.688;2022-07-04T11:36:58;5.00;;;4.25;;
36923;SDS011;22841;50.252;18.688;2022-07-04T11:39:27;9.07;;;3.58;;
36923;SDS011;22841;50.252;18.688;2022-07-04T11:41:53;11.07;;;4.20;;
36923;SDS011;22841;50.252;18.688;2022-07-04T11:44:38;4.20;;;3.72;;
36923;SDS011;22841;50.252;18.688;2022-07-04T11:47:35;4.30;;;3.90;;
36923;SDS011;22841;50.252;18.688;2022-07-04T11:50:04;5.13;;;3.90;;
36923;SDS011;22841;50.252;18.688;2022-07-04T11:55:07;27.33;;;5.03;;
36923;SDS011;22841;50.252;18.688;2022-07-04T11:57:36;4.35;;;3.85;;
36923;SDS011;22841;50.252;18.688;2022-07-04T12:00:11;11.25;;;4.28;;
36923;SDS011;22841;50.252;18.688;2022-07-04T12:02:39;3.85;;;3.40;;
36923;SDS011;22841;50.252;18.688;2022-07-04T12:05:10;4.65;;;3.45;;
36923;SDS011;22841;50.252;18.688;2022-07-04T12:07:38;6.68;;;4.00;;
36923;SDS011;22841;50.252;18.688;2022-07-04T12:10:10;5.70;;;3.83;;
36923;SDS011;22841;50.252;18.688;2022-07-04T12:12:54;3.30;;;3.00;;
36923;SDS011;22841;50.252;18.688;2022-07-04T12:15:37;3.92;;;3.22;;
36923;SDS011;22841;50.252;18.688;2022-07-04T12:18:05;2.90;;;2.40;;
36923;SDS011;22841;50.252;18.688;2022-07-04T12:21:10;2.28;;;2.10;;
36923;SDS011;22841;50.252;18.688;2022-07-04T12:23:38;2.97;;;2.55;;
36923;SDS011;22841;50.252;18.688;2022-07-04T12:26:05;4.50;;;2.95;;
36923;SDS011;22841;50.252;18.688;2022-07-04T12:28:37;7.35;;;2.75;;
36923;SDS011;22841;50.252;18.688;2022-07-04T12:31:03;2.30;;;2.10;;
36923;SDS011;22841;50.252;18.688;2022-07-04T12:33:30;6.93;;;2.97;;
36923;SDS011;22841;50.252;18.688;2022-07-04T12:35:59;6.65;;;2.13;;
36923;SDS011;22841;50.252;18.688;2022-07-04T12:43:46;1.80;;;1.70;;
36923;SDS011;22841;50.252;18.688;2022-07-04T12:46:30;4.05;;;1.65;;
36923;SDS011;22841;50.252;18.688;2022-07-04T12:48:57;1.65;;;1.55;;
36923;SDS011;22841;50.252;18.688;2022-07-04T12:51:28;2.15;;;1.30;;
36923;SDS011;22841;50.252;18.688;2022-07-04T12:54:02;6.60;;;2.22;;
36923;SDS011;22841;50.252;18.688;2022-07-04T12:59:04;5.65;;;1.80;;
36923;SDS011;22841;50.252;18.688;2022-07-04T13:01:34;3.60;;;1.73;;
36923;SDS011;22841;50.252;18.688;2022-07-04T13:04:01;4.25;;;1.30;;
36923;SDS011;22841;50.252;18.688;2022-07-04T13:06:28;2.92;;;1.08;;
36923;SDS011;22841;50.252;18.688;2022-07-04T13:08:55;2.70;;;1.55;;
36923;SDS011;22841;50.252;18.688;2022-07-04T13:11:25;2.00;;;1.90;;
36923;SDS011;22841;50.252;18.688;2022-07-04T13:14:09;2.58;;;2.10;;
36923;SDS011;22841;50.252;18.688;2022-07-04T13:16:35;6.20;;;1.88;;
36923;SDS011;22841;50.252;18.688;2022-07-04T13:19:02;1.85;;;1.00;;
36923;SDS011;22841;50.252;18.688;2022-07-04T13:21:28;1.52;;;1.10;;
36923;SDS011;22841;50.252;18.688;2022-07-04T13:23:54;17.17;;;2.00;;
36923;SDS011;22841;50.252;18.688;2022-07-04T13:26:20;5.60;;;1.15;;
36923;SDS011;22841;50.252;18.688;2022-07-04T13:28:47;2.70;;;1.00;;
36923;SDS011;22841;50.252;18.688;2022-07-04T13:31:14;1.75;;;1.25;;
36923;SDS011;22841;50.252;18.688;2022-07-04T13:33:40;1.02;;;0.82;;
36923;SDS011;22841;50.252;18.688;2022-07-04T13:36:06;1.42;;;1.00;;
36923;SDS011;22841;50.252;18.688;2022-07-04T13:38:32;3.55;;;1.17;;
36923;SDS011;22841;50.252;18.688;2022-07-04T13:40:58;6.63;;;1.50;;
36923;SDS011;22841;50.252;18.688;2022-07-04T13:43:25;1.77;;;1.15;;
36923;SDS011;22841;50.252;18.688;2022-07-04T13:45:54;43.88;;;2.88;;
36923;SDS011;22841;50.252;18.688;2022-07-04T13:48:22;2.08;;;1.60;;
36923;SDS011;22841;50.252;18.688;2022-07-04T13:50:48;3.05;;;1.23;;
36923;SDS011;22841;50.252;18.688;2022-07-04T13:53:14;2.95;;;1.17;;
36923;SDS011;22841;50.252;18.688;2022-07-04T13:55:40;13.38;;;2.00;;
36923;SDS011;22841;50.252;18.688;2022-07-04T13:58:07;4.93;;;1.48;;
36923;SDS011;22841;50.252;18.688;2022-07-04T14:00:34;3.65;;;1.10;;
36923;SDS011;22841;50.252;18.688;2022-07-04T14:03:00;4.15;;;1.27;;
36923;SDS011;22841;50.252;18.688;2022-07-04T14:05:27;1.85;;;1.20;;
36923;SDS011;22841;50.252;18.688;2022-07-04T14:07:53;2.05;;;1.65;;
36923;SDS011;22841;50.252;18.688;2022-07-04T14:10:20;2.00;;;1.90;;
36923;SDS011;22841;50.252;18.688;2022-07-04T14:12:46;1.55;;;1.30;;
36923;SDS011;22841;50.252;18.688;2022-07-04T14:15:12;3.67;;;1.60;;
36923;SDS011;22841;50.252;18.688;2022-07-04T14:17:39;1.45;;;1.17;;
36923;SDS011;22841;50.252;18.688;2022-07-04T14:20:05;2.10;;;1.20;;
36923;SDS011;22841;50.252;18.688;2022-07-04T14:22:33;13.35;;;1.70;;
36923;SDS011;22841;50.252;18.688;2022-07-04T14:25:00;4.53;;;1.70;;
36923;SDS011;22841;50.252;18.688;2022-07-04T14:27:26;2.38;;;1.50;;
36923;SDS011;22841;50.252;18.688;2022-07-04T14:29:52;2.30;;;1.60;;
36923;SDS011;22841;50.252;18.688;2022-07-04T14:32:18;2.50;;;1.08;;
36923;SDS011;22841;50.252;18.688;2022-07-04T14:34:45;5.75;;;1.50;;
36923;SDS011;22841;50.252;18.688;2022-07-04T14:37:11;1.25;;;1.20;;
36923;SDS011;22841;50.252;18.688;2022-07-04T14:39:37;3.08;;;1.20;;
36923;SDS011;22841;50.252;18.688;2022-07-04T14:42:03;2.42;;;1.40;;
36923;SDS011;22841;50.252;18.688;2022-07-04T14:44:29;3.15;;;1.83;;
36923;SDS011;22841;50.252;18.688;2022-07-04T14:46:55;13.05;;;2.70;;
36923;SDS011;22841;50.252;18.688;2022-07-04T14:49:21;1.10;;;1.00;;
36923;SDS011;22841;50.252;18.688;2022-07-04T14:51:48;1.20;;;1.10;;
36923;SDS011;22841;50.252;18.688;2022-07-04T14:54:14;5.95;;;1.27;;
36923;SDS011;22841;50.252;18.688;2022-07-04T14:56:40;2.95;;;2.20;;
36923;SDS011;22841;50.252;18.688;2022-07-04T14:59:06;5.13;;;1.40;;
36923;SDS011;22841;50.252;18.688;2022-07-04T15:01:32;1.42;;;1.30;;